METAR Data
IDs: Format: Raw Decoded Include TAF

Data at: 1000 UTC 17 Feb 2019

KTLH 170953Z AUTO 00000KT 10SM OVC005 18/18 A2988 RMK AO2 CIG 003V008 SLP117 T01830183